Time;durP1;ratioP1;P1;durP2;ratioP2;P2;SDS_P1;SDS_P2;PMS_P1;PMS_P2;Temp;Humidity;BMP_temperature;BMP_pressure;BME280_temperature;BME280_humidity;BME280_pressure;Samples;Min_cycle;Max_cycle;Signal;HPM_P1;HPM_P2
2022/05/16 00:00:22;;;;;;;3.10;1.67;;;17.60;35.60;;;;;;5052169;28;20599;-36
2022/05/16 00:02:48;;;;;;;4.82;1.77;;;17.60;35.80;;;;;;5052135;28;20185;-36
2022/05/16 00:05:14;;;;;;;3.00;1.50;;;17.50;36.10;;;;;;5052281;28;20197;-36
2022/05/16 00:07:39;;;;;;;3.72;1.95;;;17.50;36.00;;;;;;5051775;28;20190;-35
2022/05/16 00:10:06;;;;;;;2.80;1.80;;;17.50;36.10;;;;;;5051991;28;20185;-36
2022/05/16 00:12:33;;;;;;;3.35;1.42;;;17.40;35.80;;;;;;5052247;28;20183;-35
2022/05/16 00:14:59;;;;;;;3.55;1.77;;;17.40;35.80;;;;;;5052006;28;20635;-35
2022/05/16 00:17:24;;;;;;;2.50;1.80;;;17.40;36.30;;;;;;5051819;28;20295;-36
2022/05/16 00:19:50;;;;;;;5.07;2.40;;;17.30;36.20;;;;;;5051913;28;20176;-35
2022/05/16 00:22:16;;;;;;;2.10;1.50;;;17.30;36.30;;;;;;5052113;28;20208;-36
2022/05/16 00:24:43;;;;;;;3.28;1.88;;;17.30;36.30;;;;;;5052160;28;20176;-36
2022/05/16 00:27:10;;;;;;;3.20;1.90;;;17.20;36.20;;;;;;5051873;28;20272;-36
2022/05/16 00:29:36;;;;;;;3.80;2.05;;;17.20;36.10;;;;;;5051842;28;20176;-35
2022/05/16 00:32:02;;;;;;;2.50;1.70;;;17.10;36.20;;;;;;5051970;28;20184;-35
2022/05/16 00:34:28;;;;;;;2.17;1.37;;;17.10;36.20;;;;;;5052018;28;20553;-36
2022/05/16 00:36:53;;;;;;;3.20;1.90;;;17.10;36.30;;;;;;5051252;28;20403;-35
2022/05/16 00:39:21;;;;;;;3.73;1.80;;;17.00;36.30;;;;;;5051776;28;20162;-36
2022/05/16 00:41:47;;;;;;;2.17;1.35;;;17.00;36.50;;;;;;5051701;28;20248;-36
2022/05/16 00:44:14;;;;;;;2.80;1.60;;;17.00;36.40;;;;;;5051702;28;20219;-35
2022/05/16 00:46:40;;;;;;;5.22;1.90;;;16.90;36.60;;;;;;5051719;28;20177;-35
2022/05/16 00:49:12;;;;;;;4.73;1.97;;;16.90;36.70;;;;;;5051436;28;20177;-36
2022/05/16 00:51:52;;;;;;;2.28;1.55;;;16.80;36.50;;;;;;5051543;28;20716;-35
2022/05/16 00:54:33;;;;;;;5.18;1.80;;;16.80;36.70;;;;;;5050816;28;20199;-36
2022/05/16 00:57:05;;;;;;;3.65;1.65;;;16.80;37.20;;;;;;5050574;28;20183;-36
2022/05/16 00:59:40;;;;;;;1.98;1.40;;;16.80;36.60;;;;;;5051297;28;20250;-36
2022/05/16 01:04:50;;;;;;;2.78;1.77;;;16.70;36.80;;;;;;5051526;28;20235;-35
2022/05/16 01:07:30;;;;;;;2.90;2.05;;;16.60;36.70;;;;;;5051450;28;20200;-36
2022/05/16 01:09:56;;;;;;;5.18;1.95;;;16.60;36.70;;;;;;5051461;28;20681;-35
2022/05/16 01:12:34;;;;;;;2.72;1.80;;;16.50;36.80;;;;;;5053404;28;20640;-35
2022/05/16 01:15:02;;;;;;;3.25;1.40;;;16.50;36.70;;;;;;5055388;28;20165;-36
2022/05/16 01:17:27;;;;;;;2.15;1.10;;;16.50;37.00;;;;;;5055062;28;20660;-35
2022/05/16 01:19:53;;;;;;;2.43;1.70;;;16.30;37.00;;;;;;5055014;28;20197;-35
2022/05/16 01:22:33;;;;;;;2.30;1.20;;;16.30;37.00;;;;;;5054957;28;20170;-35
2022/05/16 01:25:12;;;;;;;6.18;1.98;;;16.30;37.00;;;;;;5054843;28;20491;-36
2022/05/16 01:28:10;;;;;;;3.80;1.98;;;16.30;37.00;;;;;;5054680;28;20196;-35
2022/05/16 01:30:42;;;;;;;2.95;2.55;;;16.20;36.90;;;;;;5031885;28;20192;-35
2022/05/16 01:33:07;;;;;;;3.08;1.60;;;16.20;37.30;;;;;;5054740;28;20166;-35
2022/05/16 01:35:33;;;;;;;3.03;2.40;;;16.10;37.30;;;;;;5054702;28;20187;-35
2022/05/16 01:41:10;;;;;;;3.05;1.67;;;16.10;37.70;;;;;;5054226;28;20775;-36
2022/05/16 01:43:39;;;;;;;2.30;1.67;;;16.00;37.60;;;;;;5051599;28;20192;-35
2022/05/16 01:46:06;;;;;;;3.30;2.45;;;16.00;37.50;;;;;;5054681;28;20181;-36
2022/05/16 01:48:32;;;;;;;4.65;2.35;;;16.10;37.70;;;;;;5054403;28;20197;-35
2022/05/16 01:51:04;;;;;;;4.40;2.60;;;16.00;37.70;;;;;;5054636;28;20223;-36
2022/05/16 01:53:30;;;;;;;4.38;2.10;;;16.00;37.90;;;;;;5054401;28;20173;-36
2022/05/16 01:55:56;;;;;;;3.13;1.70;;;15.90;37.90;;;;;;5054356;28;20234;-36
2022/05/16 01:58:23;;;;;;;3.07;2.23;;;16.00;38.20;;;;;;5053867;28;20209;-35
2022/05/16 02:00:49;;;;;;;3.25;2.22;;;16.00;37.80;;;;;;5054238;28;20190;-36
2022/05/16 02:03:15;;;;;;;4.35;2.40;;;15.90;37.80;;;;;;5054196;28;20165;-35
2022/05/16 02:05:43;;;;;;;3.42;1.70;;;15.90;37.90;;;;;;5054090;28;20188;-35
2022/05/16 02:08:09;;;;;;;2.40;1.52;;;15.90;38.10;;;;;;5053887;28;20193;-35
2022/05/16 02:10:35;;;;;;;2.60;1.70;;;15.90;38.30;;;;;;5054068;28;20168;-36
2022/05/16 02:13:03;;;;;;;2.45;1.58;;;15.80;38.20;;;;;;5054194;28;20502;-35
2022/05/16 02:15:31;;;;;;;2.42;1.90;;;15.80;38.00;;;;;;5054249;28;20224;-35
2022/05/16 02:17:58;;;;;;;3.97;2.15;;;15.80;38.10;;;;;;5053527;28;20267;-36
2022/05/16 02:20:24;;;;;;;2.65;1.52;;;15.80;38.30;;;;;;5054157;28;20188;-35
2022/05/16 02:25:37;;;;;;;2.45;1.80;;;15.80;38.20;;;;;;5054087;28;20578;-35
2022/05/16 02:28:04;;;;;;;3.60;1.58;;;15.70;38.30;;;;;;5053515;28;20266;-35
2022/05/16 02:30:30;;;;;;;2.53;1.85;;;15.70;38.40;;;;;;5053633;28;20181;-35
2022/05/16 02:32:56;;;;;;;3.77;2.20;;;15.60;38.30;;;;;;5053923;28;20230;-35
2022/05/16 02:35:22;;;;;;;3.20;1.67;;;15.60;39.00;;;;;;5053565;28;20679;-35
2022/05/16 02:37:48;;;;;;;2.53;1.75;;;15.60;38.60;;;;;;5053190;28;20727;-36
2022/05/16 02:40:14;;;;;;;2.22;1.50;;;15.60;38.70;;;;;;5053461;28;20176;-35
2022/05/16 02:42:40;;;;;;;2.20;1.40;;;15.60;38.40;;;;;;5053623;28;20174;-35
2022/05/16 02:45:07;;;;;;;11.27;1.67;;;15.50;38.70;;;;;;5053302;28;20767;-35
2022/05/16 02:47:33;;;;;;;2.08;1.20;;;15.50;38.70;;;;;;5053306;28;20211;-36
2022/05/16 02:49:59;;;;;;;3.40;1.50;;;15.50;38.70;;;;;;5053250;28;20645;-36
2022/05/16 02:52:25;;;;;;;2.53;1.90;;;15.50;38.60;;;;;;5053125;28;20196;-35
2022/05/16 02:54:51;;;;;;;3.20;2.27;;;15.40;38.70;;;;;;5053285;28;20605;-36
2022/05/16 02:57:17;;;;;;;3.92;1.63;;;15.40;38.60;;;;;;5052806;28;20708;-35
2022/05/16 03:00:03;;;;;;;3.95;1.90;;;15.40;38.60;;;;;;5053157;28;20193;-35
2022/05/16 03:02:28;;;;;;;2.58;1.35;;;15.40;38.70;;;;;;5052927;28;20663;-36
2022/05/16 03:04:54;;;;;;;3.33;2.17;;;15.30;38.80;;;;;;5052946;28;20178;-35
2022/05/16 03:07:20;;;;;;;2.00;1.17;;;15.30;38.80;;;;;;5052956;28;20478;-35
2022/05/16 03:09:47;;;;;;;6.27;2.00;;;15.20;38.60;;;;;;5053123;28;20656;-35
2022/05/16 03:12:13;;;;;;;3.83;2.03;;;15.20;38.80;;;;;;5052993;28;20410;-35
2022/05/16 03:14:39;;;;;;;3.85;1.80;;;15.20;38.90;;;;;;5051304;28;20276;-36
2022/05/16 03:17:05;;;;;;;9.50;1.73;;;15.20;38.90;;;;;;5052388;28;20268;-36
2022/05/16 03:19:30;;;;;;;5.00;1.87;;;15.10;38.90;;;;;;5052618;28;20411;-36
2022/05/16 03:21:57;;;;;;;2.90;1.40;;;15.10;39.10;;;;;;5052728;28;20400;-36
2022/05/16 03:24:23;;;;;;;2.50;1.52;;;15.10;39.00;;;;;;5051288;28;20502;-36
2022/05/16 03:26:49;;;;;;;3.67;1.77;;;15.00;38.90;;;;;;5052099;28;20529;-35
2022/05/16 03:29:16;;;;;;;2.93;1.57;;;15.10;38.90;;;;;;5052527;28;20165;-35
2022/05/16 03:31:42;;;;;;;4.78;2.13;;;15.10;38.90;;;;;;5052558;28;20451;-36
2022/05/16 03:34:10;;;;;;;2.72;1.60;;;15.00;38.90;;;;;;5052159;28;20671;-35
2022/05/16 03:36:37;;;;;;;4.10;2.72;;;15.00;39.00;;;;;;5052085;28;20318;-35
2022/05/16 03:41:49;;;;;;;2.72;1.90;;;15.00;39.10;;;;;;5052649;28;20207;-36
2022/05/16 03:44:15;;;;;;;4.07;1.60;;;14.90;39.50;;;;;;5052360;28;20566;-36
2022/05/16 03:46:40;;;;;;;2.33;1.40;;;14.90;39.50;;;;;;5052248;28;20489;-35
2022/05/16 03:49:06;;;;;;;3.40;2.17;;;14.90;39.50;;;;;;5052128;28;20170;-35
2022/05/16 03:51:32;;;;;;;2.22;1.10;;;14.90;39.60;;;;;;5052233;28;20226;-36
2022/05/16 03:53:59;;;;;;;3.45;2.40;;;15.00;39.60;;;;;;5052223;28;20244;-36
2022/05/16 03:56:26;;;;;;;2.90;2.13;;;15.00;39.50;;;;;;5052097;28;20648;-35
2022/05/16 03:58:53;;;;;;;3.45;2.05;;;15.00;39.60;;;;;;5051674;28;20693;-35
2022/05/16 04:01:20;;;;;;;2.45;2.13;;;15.10;39.80;;;;;;5051963;28;20179;-35
2022/05/16 04:03:45;;;;;;;4.22;2.60;;;15.10;39.60;;;;;;5052054;28;20177;-36
2022/05/16 04:06:13;;;;;;;13.53;1.90;;;15.10;39.70;;;;;;5051761;28;20184;-35
2022/05/16 04:08:40;;;;;;;4.35;2.08;;;15.20;39.50;;;;;;5051504;28;20197;-36
2022/05/16 04:11:05;;;;;;;2.38;1.60;;;15.20;40.10;;;;;;5051995;28;20211;-35
2022/05/16 04:13:32;;;;;;;2.60;1.30;;;15.20;39.90;;;;;;5051894;28;20213;-35
2022/05/16 04:15:59;;;;;;;6.22;2.28;;;15.30;40.10;;;;;;5052139;28;20252;-36
2022/05/16 04:18:25;;;;;;;3.22;2.08;;;15.30;40.00;;;;;;5051574;28;20201;-35
2022/05/16 04:20:51;;;;;;;2.35;1.77;;;15.40;40.30;;;;;;5051910;28;20633;-35
2022/05/16 04:23:17;;;;;;;3.63;1.70;;;15.50;40.00;;;;;;5051970;28;20184;-36
2022/05/16 04:25:42;;;;;;;3.30;2.30;;;15.60;40.00;;;;;;5052141;28;20598;-36
2022/05/16 04:28:11;;;;;;;8.17;2.10;;;15.60;40.00;;;;;;5051439;28;20424;-36
2022/05/16 04:30:37;;;;;;;2.85;2.45;;;15.70;40.40;;;;;;5051816;28;20205;-35
2022/05/16 04:33:04;;;;;;;2.60;1.80;;;15.80;40.10;;;;;;5051988;28;20177;-36
2022/05/16 04:35:30;;;;;;;2.55;2.00;;;15.90;40.00;;;;;;5051770;28;20171;-35
2022/05/16 04:37:56;;;;;;;2.55;1.80;;;16.00;40.00;;;;;;5051602;28;20339;-36
2022/05/16 04:40:22;;;;;;;2.90;1.53;;;16.10;40.00;;;;;;5051683;28;20587;-35
2022/05/16 04:42:48;;;;;;;3.07;1.73;;;16.20;39.60;;;;;;5051615;28;20633;-35
2022/05/16 04:45:21;;;;;;;4.25;2.35;;;16.30;39.40;;;;;;5051853;28;20256;-36
2022/05/16 04:47:52;;;;;;;2.90;2.30;;;16.40;39.10;;;;;;5054151;28;20266;-36
2022/05/16 04:50:27;;;;;;;3.53;2.28;;;16.60;39.00;;;;;;5055811;28;20164;-36
2022/05/16 04:52:53;;;;;;;3.40;2.42;;;16.70;38.70;;;;;;5054970;28;20184;-36
2022/05/16 04:55:19;;;;;;;3.47;1.75;;;16.90;38.60;;;;;;5055254;28;20590;-36
2022/05/16 04:57:44;;;;;;;4.20;2.13;;;17.00;38.40;;;;;;5055235;28;20209;-36
2022/05/16 05:00:12;;;;;;;3.40;2.63;;;17.10;38.40;;;;;;5055206;28;20426;-36
2022/05/16 05:02:39;;;;;;;5.95;2.10;;;17.20;38.20;;;;;;5055492;28;20170;-35
2022/05/16 05:05:07;;;;;;;3.40;1.70;;;17.30;38.20;;;;;;5055231;28;20181;-35
2022/05/16 05:07:34;;;;;;;4.30;2.58;;;17.40;38.00;;;;;;5055008;28;20193;-36
2022/05/16 05:15:28;;;;;;;3.40;2.25;;;17.60;37.40;;;;;;5055111;28;20226;-35
2022/05/16 05:17:54;;;;;;;4.00;2.80;;;17.70;37.40;;;;;;5054608;28;20194;-35
2022/05/16 05:20:19;;;;;;;3.70;1.80;;;17.80;37.20;;;;;;5054913;28;20165;-35
2022/05/16 05:22:47;;;;;;;4.97;2.70;;;17.90;37.20;;;;;;5054936;28;20173;-35
2022/05/16 05:25:17;;;;;;;2.67;2.10;;;18.00;37.20;;;;;;5054677;28;20684;-35
2022/05/16 05:27:44;;;;;;;3.70;2.83;;;18.10;36.80;;;;;;5054303;28;20314;-35
2022/05/16 05:30:14;;;;;;;4.55;2.33;;;18.10;36.70;;;;;;5054801;28;20169;-35
2022/05/16 05:32:42;;;;;;;4.05;2.72;;;18.20;36.80;;;;;;5054528;28;20206;-35
2022/05/16 05:35:09;;;;;;;3.90;2.00;;;18.30;36.90;;;;;;5054291;28;20203;-35
2022/05/16 05:37:35;;;;;;;7.65;2.95;;;18.50;36.70;;;;;;5053933;28;20201;-36
2022/05/16 05:40:01;;;;;;;4.53;2.90;;;18.60;36.40;;;;;;5054537;28;20284;-36
2022/05/16 05:42:29;;;;;;;5.05;2.13;;;18.60;36.20;;;;;;5053754;28;20434;-36
2022/05/16 05:44:55;;;;;;;3.75;2.17;;;18.70;36.10;;;;;;5054211;28;20264;-36
2022/05/16 05:47:21;;;;;;;4.50;2.60;;;18.80;36.20;;;;;;5053918;28;20315;-36
2022/05/16 05:49:47;;;;;;;6.38;2.83;;;18.80;36.00;;;;;;5054126;28;20173;-36
2022/05/16 05:52:15;;;;;;;3.60;2.13;;;18.90;36.10;;;;;;5053969;28;20170;-36
2022/05/16 05:54:45;;;;;;;4.20;2.30;;;19.00;36.10;;;;;;5054226;28;20256;-36
2022/05/16 05:57:11;;;;;;;3.95;2.72;;;19.20;36.00;;;;;;5053633;28;20715;-35
2022/05/16 05:59:37;;;;;;;3.65;2.65;;;19.30;35.90;;;;;;5053889;28;20189;-36
2022/05/16 06:02:05;;;;;;;3.47;2.20;;;19.40;35.80;;;;;;5054024;28;20175;-35
2022/05/16 06:04:30;;;;;;;7.53;2.35;;;19.60;35.80;;;;;;5054032;28;20197;-35
2022/05/16 06:06:56;;;;;;;3.80;2.80;;;19.70;35.70;;;;;;5053440;28;20624;-35
2022/05/16 06:09:22;;;;;;;2.60;2.10;;;19.90;35.50;;;;;;5053896;28;20169;-35
2022/05/16 06:11:48;;;;;;;3.23;2.13;;;20.00;35.40;;;;;;5053341;28;20209;-35
2022/05/16 06:14:15;;;;;;;7.38;2.75;;;20.10;34.90;;;;;;5053430;28;20223;-35
2022/05/16 06:16:41;;;;;;;4.40;2.78;;;20.10;34.80;;;;;;5054362;28;20204;-35
2022/05/16 06:19:08;;;;;;;4.00;2.13;;;20.20;34.90;;;;;;5052120;28;20209;-35
2022/05/16 06:21:35;;;;;;;3.00;2.30;;;20.30;34.80;;;;;;5053991;28;20276;-36
2022/05/16 06:24:01;;;;;;;3.13;1.77;;;20.30;34.20;;;;;;5053923;28;20174;-35
2022/05/16 06:26:28;;;;;;;3.53;2.10;;;20.30;33.90;;;;;;5053676;28;20172;-35
2022/05/16 06:28:57;;;;;;;4.07;2.30;;;20.30;34.30;;;;;;5053372;28;20430;-36
2022/05/16 06:31:23;;;;;;;5.10;2.65;;;20.40;34.40;;;;;;5053686;28;20686;-36
2022/05/16 06:33:49;;;;;;;3.80;1.97;;;20.50;34.70;;;;;;5053658;28;20205;-35
2022/05/16 06:36:16;;;;;;;4.10;2.73;;;20.70;34.60;;;;;;5053675;28;20412;-36
2022/05/16 06:38:43;;;;;;;3.25;2.05;;;20.90;34.10;;;;;;5053085;28;20516;-36
2022/05/16 06:41:09;;;;;;;2.60;2.00;;;21.00;34.20;;;;;;5053677;28;20174;-36
2022/05/16 06:43:35;;;;;;;6.40;2.55;;;21.20;34.10;;;;;;5053629;28;20291;-36
2022/05/16 06:46:02;;;;;;;7.32;2.35;;;21.40;34.40;;;;;;5053360;28;20178;-36
2022/05/16 06:48:31;;;;;;;3.90;2.10;;;21.60;34.20;;;;;;5053316;28;20291;-36
2022/05/16 06:50:57;;;;;;;3.75;2.45;;;21.70;34.20;;;;;;5053306;28;20173;-36
2022/05/16 06:53:27;;;;;;;3.30;2.20;;;21.80;33.40;;;;;;5052778;28;20230;-36
2022/05/16 06:55:53;;;;;;;2.75;2.05;;;21.90;33.60;;;;;;5052576;28;20628;-36
2022/05/16 06:58:19;;;;;;;2.05;1.50;;;22.00;33.50;;;;;;5052596;28;20193;-36
2022/05/16 07:00:46;;;;;;;4.13;2.63;;;22.10;33.50;;;;;;5052410;28;20197;-36
2022/05/16 07:03:12;;;;;;;4.18;3.15;;;22.20;33.50;;;;;;5051977;28;20952;-36
2022/05/16 07:05:38;;;;;;;4.43;1.95;;;22.40;33.30;;;;;;5052858;28;20185;-36
2022/05/16 07:08:04;;;;;;;2.88;2.05;;;22.60;33.30;;;;;;5052278;28;20207;-35
2022/05/16 07:10:31;;;;;;;3.10;1.80;;;22.80;33.10;;;;;;5052297;28;20652;-36
2022/05/16 07:12:57;;;;;;;3.08;1.75;;;22.90;33.20;;;;;;5052794;28;20183;-36
2022/05/16 07:15:23;;;;;;;3.75;2.30;;;23.20;32.90;;;;;;5052912;28;20169;-36
2022/05/16 07:17:49;;;;;;;4.87;3.20;;;23.30;32.90;;;;;;5052674;28;20607;-36
2022/05/16 07:20:16;;;;;;;6.75;2.60;;;23.50;32.60;;;;;;5052891;28;20638;-35
2022/05/16 07:22:48;;;;;;;3.30;2.23;;;23.70;32.50;;;;;;5052768;28;20166;-35
2022/05/16 07:25:17;;;;;;;2.70;2.00;;;24.00;33.20;;;;;;5052616;28;20423;-35
2022/05/16 07:28:01;;;;;;;3.10;1.63;;;24.20;32.80;;;;;;5052298;28;20429;-36
2022/05/16 07:30:33;;;;;;;7.50;2.20;;;24.40;32.10;;;;;;5052756;28;20518;-36
2022/05/16 07:32:59;;;;;;;5.60;2.20;;;24.60;31.20;;;;;;5052468;28;20411;-37
2022/05/16 07:35:30;;;;;;;5.93;2.20;;;24.60;29.90;;;;;;5052458;28;20431;-36
2022/05/16 07:37:57;;;;;;;5.40;1.83;;;24.60;30.20;;;;;;5052084;28;20451;-36
2022/05/16 07:40:25;;;;;;;3.50;2.03;;;24.70;30.10;;;;;;5052359;28;20501;-36
2022/05/16 07:42:53;;;;;;;4.27;2.07;;;24.70;30.20;;;;;;5052375;28;20994;-36
2022/05/16 07:45:20;;;;;;;3.27;2.00;;;24.80;30.40;;;;;;5052301;28;20918;-36
2022/05/16 07:47:46;;;;;;;7.50;2.23;;;24.90;30.00;;;;;;5051956;28;21006;-36
2022/05/16 07:50:12;;;;;;;5.70;2.17;;;25.00;30.30;;;;;;5052169;28;20499;-36
2022/05/16 07:52:38;;;;;;;2.80;1.80;;;25.20;30.40;;;;;;5052039;28;20426;-36
2022/05/16 07:55:05;;;;;;;2.90;1.73;;;25.40;29.30;;;;;;5052475;28;20495;-36
2022/05/16 07:57:31;;;;;;;2.67;1.70;;;25.50;29.30;;;;;;5051756;28;20451;-36
2022/05/16 07:59:57;;;;;;;3.73;2.27;;;25.70;29.40;;;;;;5052057;28;20926;-36
2022/05/16 08:02:23;;;;;;;4.07;2.53;;;25.80;29.30;;;;;;5052057;28;20415;-36
2022/05/16 08:04:49;;;;;;;3.30;1.27;;;26.00;29.30;;;;;;5051998;28;20404;-36
2022/05/16 08:07:15;;;;;;;7.90;3.00;;;26.00;28.50;;;;;;5051735;28;20439;-36
2022/05/16 08:12:31;;;;;;;5.60;1.90;;;26.20;29.00;;;;;;5052247;28;20450;-36
2022/05/16 08:14:57;;;;;;;4.70;2.40;;;26.30;27.70;;;;;;5051949;28;20455;-36
2022/05/16 08:17:23;;;;;;;3.10;2.00;;;26.50;28.40;;;;;;5051470;28;20455;-36
2022/05/16 08:19:49;;;;;;;5.00;2.10;;;26.60;27.90;;;;;;5051914;28;20201;-36
2022/05/16 08:22:15;;;;;;;4.40;2.77;;;26.80;27.90;;;;;;5053886;28;20260;-36
2022/05/16 08:24:41;;;;;;;2.50;1.77;;;26.90;26.60;;;;;;5056224;28;20399;-36
2022/05/16 08:27:07;;;;;;;5.90;1.97;;;26.90;26.70;;;;;;5055693;28;20432;-36
2022/05/16 08:29:33;;;;;;;3.80;2.40;;;27.00;27.20;;;;;;5055899;28;20181;-36
2022/05/16 08:32:00;;;;;;;2.93;1.63;;;27.10;27.80;;;;;;5055815;28;20461;-36
2022/05/16 08:34:26;;;;;;;2.70;1.90;;;27.30;28.00;;;;;;5056095;28;20468;-36
2022/05/16 08:40:03;;;;;;;4.03;2.80;;;27.60;27.30;;;;;;5055747;28;20818;-36
2022/05/16 08:42:47;;;;;;;3.17;1.70;;;27.60;25.40;;;;;;5055642;28;20414;-36
2022/05/16 08:45:29;;;;;;;2.77;1.73;;;27.70;24.90;;;;;;5055863;28;20466;-36
2022/05/16 08:48:03;;;;;;;3.30;1.63;;;27.70;25.60;;;;;;5055332;28;20427;-36
2022/05/16 08:50:41;;;;;;;3.97;1.87;;;27.70;25.30;;;;;;5055589;28;20819;-37
2022/05/16 08:53:16;;;;;;;3.63;2.37;;;27.90;26.60;;;;;;5055704;28;20467;-36
2022/05/16 08:55:48;;;;;;;4.40;1.80;;;28.10;25.80;;;;;;5055531;28;20439;-36
2022/05/16 08:58:35;;;;;;;3.97;1.77;;;28.20;25.40;;;;;;5055245;28;20822;-36
2022/05/16 09:01:11;;;;;;;3.40;1.33;;;28.30;25.20;;;;;;5055289;28;20419;-36
2022/05/16 09:03:53;;;;;;;3.57;1.93;;;28.40;25.30;;;;;;5055621;28;20403;-36
2022/05/16 09:06:29;;;;;;;3.10;1.93;;;28.50;25.30;;;;;;5055440;28;20412;-36
2022/05/16 09:09:06;;;;;;;2.60;1.97;;;28.50;25.40;;;;;;5055218;28;20423;-36
2022/05/16 09:11:32;;;;;;;4.47;2.40;;;28.70;25.40;;;;;;5055147;28;20886;-36
2022/05/16 09:14:05;;;;;;;3.20;2.00;;;28.80;25.10;;;;;;5055099;28;20415;-37
2022/05/16 09:16:40;;;;;;;7.77;1.77;;;28.90;25.10;;;;;;5055200;28;20182;-36
2022/05/16 09:19:21;;;;;;;2.47;2.00;;;29.10;24.10;;;;;;5054788;28;20455;-37
2022/05/16 09:22:31;;;;;;;3.00;1.93;;;29.20;23.90;;;;;;5055510;28;20416;-36
2022/05/16 09:25:11;;;;;;;2.70;1.63;;;29.20;22.80;;;;;;5050344;28;20488;-36
2022/05/16 09:30:27;;;;;;;2.50;2.10;;;29.40;23.70;;;;;;5054794;28;20446;-36
2022/05/16 09:33:17;;;;;;;7.47;2.07;;;29.50;23.10;;;;;;5052947;28;20404;-37
2022/05/16 09:35:47;;;;;;;3.40;2.00;;;29.50;23.10;;;;;;5054848;28;20412;-36
2022/05/16 09:38:13;;;;;;;4.17;1.60;;;29.50;22.10;;;;;;5054376;28;20463;-36
2022/05/16 09:40:47;;;;;;;3.97;2.00;;;29.50;23.20;;;;;;5054601;28;20468;-37
2022/05/16 09:43:21;;;;;;;2.30;1.87;;;29.60;22.50;;;;;;5054613;28;20628;-36
2022/05/16 09:45:58;;;;;;;3.80;1.77;;;29.70;22.60;;;;;;5054523;28;20771;-36
2022/05/16 09:48:24;;;;;;;2.93;2.00;;;29.70;21.60;;;;;;5054285;28;20430;-37
2022/05/16 09:50:58;;;;;;;4.13;1.93;;;29.70;22.10;;;;;;5054382;28;20904;-37
2022/05/16 09:53:32;;;;;;;3.50;1.73;;;29.70;22.00;;;;;;5054313;28;20486;-37
2022/05/16 09:56:05;;;;;;;2.43;1.53;;;29.80;22.40;;;;;;5054553;28;20404;-37
2022/05/16 09:58:46;;;;;;;2.70;1.87;;;29.90;22.40;;;;;;5053968;28;20459;-36
2022/05/16 10:01:27;;;;;;;3.57;1.70;;;30.10;23.50;;;;;;5054157;28;20918;-36
2022/05/16 10:03:52;;;;;;;5.03;2.10;;;30.20;22.30;;;;;;5054324;28;20538;-36
2022/05/16 10:06:37;;;;;;;4.40;1.83;;;30.30;22.40;;;;;;5054187;28;20966;-36
2022/05/16 10:09:08;;;;;;;4.90;2.17;;;30.40;22.80;;;;;;5053822;28;20545;-36
2022/05/16 10:11:37;;;;;;;3.47;2.13;;;30.40;22.20;;;;;;5054078;28;20502;-36
2022/05/16 10:14:03;;;;;;;3.80;1.47;;;30.40;22.50;;;;;;5053942;28;20424;-36
2022/05/16 10:16:31;;;;;;;2.03;1.50;;;30.40;21.60;;;;;;5054099;28;20412;-37
2022/05/16 10:19:03;;;;;;;2.37;1.80;;;30.50;22.40;;;;;;5053749;28;20463;-37
2022/05/16 10:21:34;;;;;;;2.63;1.60;;;30.60;22.50;;;;;;5053968;28;20431;-36
2022/05/16 10:24:02;;;;;;;3.93;2.20;;;30.70;21.80;;;;;;5053941;28;20501;-37
2022/05/16 10:26:39;;;;;;;6.50;2.97;;;30.70;20.60;;;;;;5053752;28;20408;-36
2022/05/16 10:29:12;;;;;;;4.63;2.40;;;30.70;21.10;;;;;;5053472;28;20830;-36
2022/05/16 10:34:43;;;;;;;2.20;1.73;;;30.90;21.00;;;;;;5053843;28;20429;-37
2022/05/16 10:37:10;;;;;;;2.57;1.73;;;31.00;21.90;;;;;;5053231;28;20429;-36
2022/05/16 10:39:42;;;;;;;2.47;1.30;;;31.00;21.30;;;;;;5053420;28;20577;-37
2022/05/16 10:42:26;;;;;;;3.73;1.60;;;31.20;21.20;;;;;;5053670;28;20457;-36
2022/05/16 10:44:59;;;;;;;2.10;1.70;;;31.20;21.00;;;;;;5052725;28;20405;-36
2022/05/16 10:47:33;;;;;;;8.00;1.97;;;31.20;21.30;;;;;;5053060;28;20420;-36
2022/05/16 10:50:31;;;;;;;4.67;2.20;;;31.30;21.60;;;;;;5053530;28;20416;-37
2022/05/16 10:53:10;;;;;;;2.90;1.80;;;31.40;20.00;;;;;;5053300;28;20407;-37
2022/05/16 10:55:57;;;;;;;3.63;1.70;;;31.60;20.00;;;;;;5053185;28;20416;-37
2022/05/16 10:58:47;;;;;;;3.20;2.20;;;31.60;19.40;;;;;;5052942;28;20548;-36
2022/05/16 11:01:15;;;;;;;2.20;1.70;;;31.50;19.70;;;;;;5053314;28;20418;-37
2022/05/16 11:04:13;;;;;;;5.03;2.00;;;31.50;19.40;;;;;;5053182;28;20408;-37
2022/05/16 11:07:05;;;;;;;3.27;2.23;;;31.60;19.50;;;;;;5037029;28;20447;-37
2022/05/16 11:09:42;;;;;;;2.13;1.43;;;31.70;19.80;;;;;;5052924;28;20426;-37
2022/05/16 11:12:23;;;;;;;2.53;1.50;;;31.80;20.10;;;;;;5052914;28;20411;-37
2022/05/16 11:15:03;;;;;;;3.93;1.87;;;31.90;19.50;;;;;;5053088;28;20413;-35
2022/05/16 11:17:58;;;;;;;3.20;2.10;;;32.00;19.40;;;;;;5052615;28;20418;-34
2022/05/16 11:20:44;;;;;;;3.10;1.53;;;32.10;20.30;;;;;;5052797;28;20407;-34
2022/05/16 11:23:21;;;;;;;6.70;2.50;;;32.30;20.70;;;;;;5052747;28;20456;-34
2022/05/16 11:25:58;;;;;;;3.80;2.07;;;32.50;20.50;;;;;;5052821;28;20402;-34
2022/05/16 11:31:59;;;;;;;5.27;1.97;;;32.80;19.80;;;;;;5052793;28;20493;-34
2022/05/16 11:34:53;;;;;;;2.50;1.70;;;32.90;18.90;;;;;;5052372;28;20768;-34
2022/05/16 11:37:34;;;;;;;3.10;1.70;;;32.80;18.90;;;;;;5046256;28;21045;-36
2022/05/16 11:40:05;;;;;;;3.53;1.77;;;32.80;19.70;;;;;;5052460;28;20416;-36
2022/05/16 11:42:41;;;;;;;2.97;1.87;;;32.90;18.10;;;;;;5052511;28;20453;-37
2022/05/16 11:45:11;;;;;;;2.93;1.50;;;32.70;18.30;;;;;;5052345;28;20415;-37
2022/05/16 11:48:08;;;;;;;2.80;1.43;;;32.70;18.50;;;;;;5052015;28;20428;-37
2022/05/16 11:50:45;;;;;;;3.70;1.80;;;32.60;19.30;;;;;;5050049;28;20439;-36
2022/05/16 11:53:50;;;;;;;3.83;1.73;;;32.60;19.30;;;;;;5052384;28;20432;-36
2022/05/16 12:02:28;;;;;;;3.17;2.00;;;32.50;19.60;;;;;;5052160;28;20518;-37
2022/05/16 12:05:25;;;;;;;4.13;1.93;;;32.40;18.40;;;;;;5052167;28;20400;-36
2022/05/16 12:08:04;;;;;;;2.17;1.97;;;32.30;17.90;;;;;;5030989;28;20464;-37
2022/05/16 12:10:31;;;;;;;3.77;1.80;;;32.10;18.90;;;;;;5052060;28;20436;-36
2022/05/16 12:13:22;;;;;;;4.60;2.07;;;32.00;18.80;;;;;;5051705;28;20498;-36
2022/05/16 12:16:08;;;;;;;5.77;1.60;;;32.00;19.60;;;;;;5051981;28;20415;-36
2022/05/16 12:18:39;;;;;;;2.50;1.73;;;32.00;19.10;;;;;;5051283;28;20458;-36
2022/05/16 12:21:20;;;;;;;4.67;2.27;;;32.00;19.40;;;;;;5051693;28;20558;-37
2022/05/16 12:23:52;;;;;;;3.07;1.83;;;32.00;19.70;;;;;;5051973;28;20433;-36
2022/05/16 12:26:26;;;;;;;4.20;1.90;;;32.10;20.20;;;;;;5051779;28;20926;-36
2022/05/16 12:29:11;;;;;;;4.00;1.73;;;32.30;19.90;;;;;;5051545;28;20536;-36
2022/05/16 12:31:49;;;;;;;6.37;1.93;;;32.50;19.60;;;;;;5051571;28;20407;-37
2022/05/16 12:34:35;;;;;;;2.20;1.87;;;32.70;19.60;;;;;;5051894;28;20404;-36
2022/05/16 12:37:05;;;;;;;2.47;2.03;;;32.80;19.30;;;;;;5051427;28;20465;-36
2022/05/16 12:39:39;;;;;;;3.20;2.07;;;32.80;19.00;;;;;;5051792;28;20481;-37
2022/05/16 12:42:34;;;;;;;2.83;2.00;;;33.00;19.60;;;;;;5051590;28;20908;-37
2022/05/16 12:45:21;;;;;;;4.17;2.00;;;33.20;19.30;;;;;;5051797;28;20397;-37
2022/05/16 12:47:54;;;;;;;3.90;1.70;;;33.20;18.30;;;;;;5043658;28;20510;-37
2022/05/16 12:50:30;;;;;;;5.60;2.20;;;33.20;17.80;;;;;;5051587;28;20724;-37
2022/05/16 12:53:18;;;;;;;3.73;2.10;;;33.10;18.30;;;;;;5051811;28;20435;-37
2022/05/16 12:56:12;;;;;;;2.80;1.70;;;33.10;18.00;;;;;;5051683;28;20434;-37
2022/05/16 12:58:48;;;;;;;2.60;1.53;;;33.20;18.20;;;;;;5051097;28;20593;-37
2022/05/16 13:01:36;;;;;;;4.23;1.97;;;33.20;18.20;;;;;;5051379;28;20494;-37
2022/05/16 13:04:25;;;;;;;2.50;1.60;;;33.30;18.50;;;;;;5051572;28;20411;-37
2022/05/16 13:07:03;;;;;;;4.20;2.10;;;33.50;18.50;;;;;;5051174;28;20846;-37
2022/05/16 13:09:52;;;;;;;4.40;1.87;;;33.60;18.50;;;;;;5055125;28;21005;-37
2022/05/16 13:12:32;;;;;;;6.40;2.40;;;33.80;18.40;;;;;;5054916;28;20407;-37
2022/05/16 13:15:26;;;;;;;2.90;2.10;;;34.00;18.10;;;;;;5055160;28;20521;-37
2022/05/16 13:17:58;;;;;;;2.70;2.03;;;34.20;18.70;;;;;;5054617;28;20455;-37
2022/05/16 13:20:34;;;;;;;2.10;1.40;;;34.30;18.30;;;;;;5055063;28;20465;-37
2022/05/16 13:23:01;;;;;;;2.50;1.90;;;34.30;18.30;;;;;;5055136;28;20395;-37
2022/05/16 13:25:29;;;;;;;3.73;1.90;;;34.30;17.50;;;;;;5054846;28;20396;-37
2022/05/16 13:30:44;;;;;;;2.97;2.07;;;34.10;17.20;;;;;;5055098;28;20408;-37
2022/05/16 13:33:33;;;;;;;6.20;2.23;;;33.90;17.00;;;;;;5054923;28;20497;-37
2022/05/16 13:36:20;;;;;;;7.17;2.20;;;33.90;16.50;;;;;;5054733;28;20461;-35
2022/05/16 13:38:59;;;;;;;7.53;3.13;;;33.90;17.20;;;;;;5054334;28;20462;-35
2022/05/16 13:41:27;;;;;;;2.30;1.70;;;33.90;17.20;;;;;;5054870;28;20465;-35
2022/05/16 13:43:53;;;;;;;3.47;2.07;;;33.90;17.40;;;;;;5054545;28;20431;-34
2022/05/16 13:46:21;;;;;;;2.17;1.70;;;33.90;17.00;;;;;;5054580;28;20400;-35
2022/05/16 13:49:05;;;;;;;2.30;2.07;;;33.80;17.10;;;;;;5054130;28;20896;-35